Time;durP1;ratioP1;P1;durP2;ratioP2;P2;SDS_P1;SDS_P2;PMS_P1;PMS_P2;Temp;Humidity;BMP_temperature;BMP_pressure;BME280_temperature;BME280_humidity;BME280_pressure;Samples;Min_cycle;Max_cycle;Signal;HPM_P1;HPM_P2
2023/12/09 00:02:06;;;;;;;8.20;3.07;;;7.90;99.90;;;;;;5080939;28;20448;-80
2023/12/09 00:04:34;;;;;;;5.27;2.67;;;8.00;99.90;;;;;;5070357;28;20492;-79
2023/12/09 00:07:01;;;;;;;6.43;2.90;;;8.10;99.90;;;;;;5089727;28;20972;-80
2023/12/09 00:09:29;;;;;;;5.53;2.23;;;8.10;99.90;;;;;;5074681;28;21085;-80
2023/12/09 00:12:00;;;;;;;5.33;3.07;;;8.10;99.90;;;;;;5090175;28;20458;-81
2023/12/09 00:14:27;;;;;;;14.57;3.83;;;8.10;99.90;;;;;;5080285;28;20470;-80
2023/12/09 00:16:54;;;;;;;7.90;3.17;;;8.20;99.90;;;;;;5086528;28;20456;-77
2023/12/09 00:19:21;;;;;;;6.50;2.87;;;8.20;99.90;;;;;;5086380;28;20471;-78
2023/12/09 00:21:49;;;;;;;5.70;2.80;;;8.20;99.90;;;;;;5102006;28;20454;-79
2023/12/09 00:24:16;;;;;;;5.57;2.50;;;8.20;99.90;;;;;;5080591;28;20520;-79
2023/12/09 00:26:44;;;;;;;6.67;2.90;;;8.30;99.90;;;;;;5083250;28;20557;-79
2023/12/09 00:29:10;;;;;;;5.00;2.60;;;8.30;99.90;;;;;;5077843;28;20500;-81
2023/12/09 00:31:37;;;;;;;8.90;3.03;;;8.20;99.90;;;;;;5078731;28;20975;-81
2023/12/09 00:34:04;;;;;;;4.67;2.23;;;8.20;99.90;;;;;;5091101;28;20469;-80
2023/12/09 00:36:31;;;;;;;12.10;4.10;;;8.20;99.90;;;;;;5086862;28;20975;-78
2023/12/09 00:38:59;;;;;;;7.63;2.70;;;8.20;99.90;;;;;;5074869;28;20848;-81
2023/12/09 00:41:26;;;;;;;6.80;2.30;;;8.20;99.90;;;;;;5097709;28;20452;-81
2023/12/09 00:43:52;;;;;;;9.97;3.40;;;8.10;99.90;;;;;;5092605;28;21019;-80
2023/12/09 00:46:20;;;;;;;7.77;3.17;;;8.10;99.90;;;;;;5088487;28;20449;-81
2023/12/09 00:48:47;;;;;;;7.27;2.50;;;8.00;99.90;;;;;;5094239;28;20472;-82
2023/12/09 00:51:14;;;;;;;9.53;4.00;;;8.10;99.90;;;;;;5091098;28;20464;-82
2023/12/09 00:53:41;;;;;;;11.50;4.23;;;8.10;99.90;;;;;;5083182;28;20451;-81
2023/12/09 00:56:10;;;;;;;6.23;2.80;;;8.00;99.90;;;;;;5095511;28;20472;-81
2023/12/09 00:58:37;;;;;;;7.27;3.57;;;7.90;99.90;;;;;;5091557;28;20498;-81
2023/12/09 01:01:04;;;;;;;6.73;2.50;;;7.90;99.90;;;;;;5093833;28;20449;-81
2023/12/09 01:03:30;;;;;;;10.23;2.63;;;7.90;99.90;;;;;;5098618;28;20450;-81
2023/12/09 01:05:58;;;;;;;7.07;3.00;;;7.80;99.90;;;;;;5093829;28;20462;-81
2023/12/09 01:08:29;;;;;;;6.77;2.40;;;7.80;99.90;;;;;;5091869;28;20481;-79
2023/12/09 01:10:55;;;;;;;8.00;2.80;;;7.90;99.90;;;;;;5091975;28;20458;-81
2023/12/09 01:13:23;;;;;;;17.87;3.23;;;7.90;99.90;;;;;;5097359;28;20455;-80
2023/12/09 01:15:50;;;;;;;11.80;3.40;;;7.90;99.90;;;;;;5092661;28;20452;-80
2023/12/09 01:18:17;;;;;;;8.00;2.77;;;7.90;99.90;;;;;;5095828;28;20470;-80
2023/12/09 01:20:44;;;;;;;5.93;2.80;;;7.80;99.90;;;;;;5087610;28;20447;-81
2023/12/09 01:23:11;;;;;;;8.80;2.30;;;7.80;99.90;;;;;;5096742;28;20452;-80
2023/12/09 01:25:38;;;;;;;7.17;3.20;;;7.90;99.90;;;;;;5093083;28;20487;-80
2023/12/09 01:28:05;;;;;;;10.80;3.27;;;7.90;99.90;;;;;;5093284;28;20480;-80
2023/12/09 01:30:33;;;;;;;6.93;2.73;;;7.80;99.90;;;;;;5090028;28;20453;-81
2023/12/09 01:33:00;;;;;;;9.20;2.73;;;7.80;99.90;;;;;;5097018;28;20982;-80
2023/12/09 01:35:26;;;;;;;10.07;3.73;;;7.80;99.90;;;;;;5093170;28;21081;-80
2023/12/09 01:37:53;;;;;;;5.20;2.70;;;7.70;99.90;;;;;;5096970;28;20544;-79
2023/12/09 01:40:21;;;;;;;9.43;3.00;;;7.60;99.90;;;;;;5088921;28;20450;-81
2023/12/09 01:42:47;;;;;;;7.33;2.97;;;7.60;99.90;;;;;;5077315;28;20462;-81
2023/12/09 01:45:16;;;;;;;7.73;2.47;;;7.50;99.90;;;;;;5078300;28;20497;-81
2023/12/09 01:47:44;;;;;;;10.03;2.30;;;7.50;99.90;;;;;;5070086;28;20460;-80
2023/12/09 01:50:12;;;;;;;12.37;3.60;;;7.60;99.90;;;;;;5083931;28;20828;-79
2023/12/09 01:52:39;;;;;;;11.13;3.50;;;7.70;99.90;;;;;;5097241;28;20454;-80
2023/12/09 01:55:06;;;;;;;5.97;2.77;;;7.70;99.90;;;;;;5094747;28;20451;-80
2023/12/09 01:57:33;;;;;;;15.13;3.00;;;7.70;99.90;;;;;;5068793;28;20459;-80
2023/12/09 02:00:00;;;;;;;10.00;3.40;;;7.60;99.90;;;;;;5084051;28;20467;-81
2023/12/09 02:02:27;;;;;;;8.90;2.83;;;7.60;99.90;;;;;;5092341;28;20467;-80
2023/12/09 02:04:56;;;;;;;8.03;2.50;;;7.70;99.90;;;;;;5095807;28;20485;-80
2023/12/09 02:07:24;;;;;;;9.40;3.33;;;7.80;99.90;;;;;;5085371;28;20451;-80
2023/12/09 02:09:52;;;;;;;10.37;3.10;;;7.80;99.90;;;;;;5081866;28;20573;-79
2023/12/09 02:12:30;;;;;;;11.73;3.00;;;7.80;99.90;;;;;;5097071;28;20541;-80
2023/12/09 02:15:03;;;;;;;9.10;3.30;;;7.80;99.90;;;;;;5095506;28;20944;-80
2023/12/09 02:17:39;;;;;;;10.97;2.83;;;7.80;99.90;;;;;;5096885;28;20534;-80
2023/12/09 02:20:11;;;;;;;6.20;3.00;;;7.80;99.90;;;;;;5090948;28;20454;-80
2023/12/09 02:22:37;;;;;;;6.50;3.00;;;7.80;99.90;;;;;;5052009;28;21126;-80
2023/12/09 02:25:06;;;;;;;12.70;3.20;;;7.90;99.90;;;;;;5076279;28;20882;-80
2023/12/09 02:27:52;;;;;;;14.47;2.80;;;7.90;99.90;;;;;;5071136;28;20482;-80
2023/12/09 02:30:26;;;;;;;4.80;2.40;;;7.90;99.90;;;;;;5090765;28;20817;-82
2023/12/09 02:32:55;;;;;;;6.57;3.13;;;8.00;99.90;;;;;;5095948;28;20953;-79
2023/12/09 02:35:25;;;;;;;9.40;2.97;;;8.00;99.90;;;;;;5091685;28;20443;-79
2023/12/09 02:37:53;;;;;;;8.90;3.07;;;8.00;99.90;;;;;;5095951;28;20473;-80
2023/12/09 02:40:23;;;;;;;14.00;3.10;;;8.00;99.90;;;;;;5092081;28;20462;-81
2023/12/09 02:42:50;;;;;;;5.63;2.50;;;8.10;99.90;;;;;;5097572;28;20458;-81
2023/12/09 02:45:19;;;;;;;11.60;3.20;;;8.10;99.90;;;;;;5097256;28;20495;-80
2023/12/09 02:47:47;;;;;;;7.70;3.00;;;8.10;99.90;;;;;;5096164;28;20482;-80
2023/12/09 02:50:14;;;;;;;5.03;2.63;;;8.10;99.90;;;;;;5089017;28;20465;-81
2023/12/09 02:52:42;;;;;;;9.30;2.93;;;8.10;99.90;;;;;;5097048;28;20472;-80
2023/12/09 02:55:10;;;;;;;8.00;2.20;;;8.00;99.90;;;;;;5096723;28;20451;-80
2023/12/09 02:57:38;;;;;;;7.80;3.30;;;7.90;99.90;;;;;;5083909;28;20980;-80
2023/12/09 03:00:07;;;;;;;8.10;2.87;;;7.80;99.90;;;;;;5092721;28;20434;-80
2023/12/09 03:02:33;;;;;;;8.20;2.87;;;7.80;99.90;;;;;;5088704;28;20826;-79
2023/12/09 03:05:03;;;;;;;11.33;2.97;;;7.70;99.90;;;;;;5096911;28;20516;-79
2023/12/09 03:07:30;;;;;;;8.10;2.30;;;7.60;99.90;;;;;;5087752;28;20514;-78
2023/12/09 03:09:57;;;;;;;9.43;2.80;;;7.60;99.90;;;;;;5089237;28;20454;-79
2023/12/09 03:12:24;;;;;;;11.80;3.60;;;7.60;99.90;;;;;;5078869;28;20454;-80
2023/12/09 03:14:52;;;;;;;8.57;2.60;;;7.50;99.90;;;;;;5099798;28;20451;-78
2023/12/09 03:17:20;;;;;;;8.33;3.67;;;7.50;99.90;;;;;;5103193;28;20482;-78
2023/12/09 03:19:46;;;;;;;5.77;2.60;;;7.40;99.90;;;;;;5103837;28;20465;-78
2023/12/09 03:22:13;;;;;;;7.27;2.77;;;7.40;99.90;;;;;;5087933;28;20451;-79
2023/12/09 03:24:42;;;;;;;6.07;2.27;;;7.40;99.90;;;;;;5095930;28;20478;-78
2023/12/09 03:27:09;;;;;;;3.47;2.10;;;7.30;99.90;;;;;;5103286;28;20880;-78
2023/12/09 03:29:36;;;;;;;5.27;2.93;;;7.30;99.90;;;;;;5100652;28;20628;-78
2023/12/09 03:32:05;;;;;;;8.27;3.10;;;7.30;99.90;;;;;;5097677;28;20461;-78
2023/12/09 03:34:32;;;;;;;7.27;2.50;;;7.30;99.90;;;;;;5078536;28;20516;-78
2023/12/09 03:36:59;;;;;;;3.93;1.93;;;7.30;99.90;;;;;;5089659;28;20955;-80
2023/12/09 03:39:33;;;;;;;9.37;2.40;;;7.20;99.90;;;;;;5095600;28;20497;-80
2023/12/09 03:41:59;;;;;;;11.17;3.17;;;7.10;99.90;;;;;;5091523;28;20449;-80
2023/12/09 03:44:26;;;;;;;10.73;3.83;;;7.10;99.90;;;;;;5094706;28;20454;-79
2023/12/09 03:46:53;;;;;;;7.97;2.80;;;7.10;99.90;;;;;;5091577;28;20451;-79
2023/12/09 03:49:21;;;;;;;10.27;2.70;;;7.10;99.90;;;;;;5095279;28;20471;-80
2023/12/09 03:51:48;;;;;;;6.20;3.10;;;7.10;99.90;;;;;;5095991;28;20458;-80
2023/12/09 03:54:15;;;;;;;13.70;3.47;;;7.10;99.90;;;;;;5098627;28;20464;-79
2023/12/09 03:56:41;;;;;;;11.20;3.10;;;7.10;99.90;;;;;;5090662;28;20530;-79
2023/12/09 03:59:08;;;;;;;10.83;3.50;;;7.10;99.90;;;;;;5083721;28;20646;-80
2023/12/09 04:01:35;;;;;;;12.13;3.17;;;7.00;99.90;;;;;;5087088;28;20455;-79
2023/12/09 04:04:02;;;;;;;12.53;2.77;;;7.00;99.90;;;;;;5092810;28;20461;-77
2023/12/09 04:06:32;;;;;;;8.83;3.03;;;7.00;99.90;;;;;;5096848;28;20486;-77
2023/12/09 04:09:00;;;;;;;5.97;2.70;;;7.00;99.90;;;;;;5101557;28;20473;-79
2023/12/09 04:11:27;;;;;;;6.40;3.00;;;7.00;99.90;;;;;;5092613;28;20467;-80
2023/12/09 04:13:53;;;;;;;10.80;3.10;;;7.00;99.90;;;;;;5094992;28;20458;-79
2023/12/09 04:16:20;;;;;;;8.10;2.67;;;6.90;99.90;;;;;;5091049;28;20458;-80
2023/12/09 04:18:47;;;;;;;8.77;3.00;;;7.00;99.90;;;;;;5095502;28;20473;-80
2023/12/09 04:21:14;;;;;;;8.87;2.60;;;6.90;99.90;;;;;;5090165;28;20479;-80
2023/12/09 04:23:42;;;;;;;16.13;4.07;;;6.90;99.90;;;;;;5095486;28;20830;-79
2023/12/09 04:26:09;;;;;;;6.77;2.80;;;6.90;99.90;;;;;;5091181;28;20492;-80
2023/12/09 04:28:35;;;;;;;7.83;2.90;;;6.90;99.90;;;;;;5095951;28;20739;-80
2023/12/09 04:31:02;;;;;;;9.10;3.27;;;6.90;99.90;;;;;;5087435;28;20453;-80
2023/12/09 04:33:29;;;;;;;9.00;2.87;;;6.90;99.90;;;;;;5096159;28;20450;-79
2023/12/09 04:35:56;;;;;;;7.93;3.07;;;6.90;99.90;;;;;;5090575;28;20460;-79
2023/12/09 04:38:23;;;;;;;8.67;2.57;;;6.90;99.90;;;;;;5090689;28;20481;-79
2023/12/09 04:40:51;;;;;;;13.07;2.97;;;6.90;99.90;;;;;;5078722;28;20458;-80
2023/12/09 04:43:18;;;;;;;7.57;2.50;;;6.80;99.90;;;;;;5083005;28;20465;-79
2023/12/09 04:45:45;;;;;;;6.27;2.53;;;6.90;99.90;;;;;;5086089;28;20482;-80
2023/12/09 04:48:12;;;;;;;7.30;2.87;;;6.80;99.90;;;;;;5096270;28;20475;-80
2023/12/09 04:50:38;;;;;;;11.63;2.70;;;6.80;99.90;;;;;;5089216;28;20454;-77
2023/12/09 04:53:05;;;;;;;7.67;2.90;;;6.70;99.90;;;;;;5095000;28;20449;-80
2023/12/09 04:55:38;;;;;;;5.33;2.63;;;6.70;99.90;;;;;;5092240;28;20453;-80
2023/12/09 04:58:06;;;;;;;9.23;2.60;;;6.70;99.90;;;;;;5082517;28;20482;-79
2023/12/09 05:00:32;;;;;;;8.43;3.07;;;6.70;99.90;;;;;;5081935;28;20455;-80
2023/12/09 05:02:59;;;;;;;5.80;2.97;;;6.80;99.90;;;;;;5099680;28;20449;-79
2023/12/09 05:05:26;;;;;;;9.57;3.37;;;6.80;99.90;;;;;;5096578;28;20994;-79
2023/12/09 05:07:53;;;;;;;6.30;3.10;;;6.80;99.90;;;;;;5098589;28;20507;-78
2023/12/09 05:10:21;;;;;;;7.33;3.07;;;6.70;99.90;;;;;;5092716;28;20474;-80
2023/12/09 05:12:48;;;;;;;5.97;2.40;;;6.60;99.90;;;;;;5098534;28;20957;-79
2023/12/09 05:15:16;;;;;;;10.87;2.47;;;6.50;99.90;;;;;;5095379;28;20468;-79
2023/12/09 05:17:43;;;;;;;13.17;2.83;;;6.60;99.90;;;;;;5094059;28;20489;-79
2023/12/09 05:20:11;;;;;;;8.17;2.80;;;6.60;99.90;;;;;;5077355;28;20462;-79
2023/12/09 05:22:44;;;;;;;10.97;3.30;;;6.60;99.90;;;;;;5098276;28;20457;-80
2023/12/09 05:25:11;;;;;;;4.70;2.60;;;6.70;99.90;;;;;;5094857;28;20540;-80
2023/12/09 05:27:41;;;;;;;6.57;3.13;;;6.60;99.90;;;;;;5085265;28;20455;-80
2023/12/09 05:30:09;;;;;;;7.70;2.10;;;6.50;99.90;;;;;;5076826;28;20459;-78
2023/12/09 05:32:37;;;;;;;6.60;2.70;;;6.50;99.90;;;;;;5097798;28;20453;-79
2023/12/09 05:35:07;;;;;;;8.50;2.80;;;6.40;99.90;;;;;;5095745;28;20976;-79
2023/12/09 05:37:34;;;;;;;9.40;2.40;;;6.40;99.90;;;;;;5069684;28;20444;-78
2023/12/09 05:40:01;;;;;;;5.77;2.30;;;6.40;99.90;;;;;;5077261;28;20461;-80
2023/12/09 05:42:27;;;;;;;5.03;1.90;;;6.40;99.90;;;;;;5097064;28;20462;-79
2023/12/09 05:44:54;;;;;;;4.60;2.10;;;6.30;99.90;;;;;;5093010;28;20911;-79
2023/12/09 05:47:21;;;;;;;4.23;2.57;;;6.20;99.90;;;;;;5091984;28;20516;-79
2023/12/09 05:49:49;;;;;;;7.23;2.53;;;6.30;99.90;;;;;;5094976;28;20566;-79
2023/12/09 05:52:15;;;;;;;6.70;3.27;;;6.20;99.90;;;;;;5096615;28;20461;-80
2023/12/09 05:54:41;;;;;;;5.97;2.73;;;6.20;99.90;;;;;;5099067;28;20460;-79
2023/12/09 05:57:08;;;;;;;8.43;2.43;;;6.30;99.90;;;;;;5076223;28;20204;-80
2023/12/09 05:59:35;;;;;;;4.80;2.47;;;6.30;99.90;;;;;;5099934;28;20482;-79
2023/12/09 06:02:03;;;;;;;6.00;2.83;;;6.30;99.90;;;;;;5088436;28;20522;-80
2023/12/09 06:04:29;;;;;;;9.90;3.43;;;6.30;99.90;;;;;;5099744;28;20465;-80
2023/12/09 06:06:58;;;;;;;4.30;2.53;;;6.30;99.90;;;;;;5097074;28;21009;-80
2023/12/09 06:09:30;;;;;;;7.10;3.60;;;6.30;99.90;;;;;;5094972;28;20495;-80
2023/12/09 06:11:57;;;;;;;4.47;2.80;;;6.30;99.90;;;;;;5094929;28;20458;-79
2023/12/09 06:14:24;;;;;;;8.20;3.07;;;6.30;99.90;;;;;;5098130;28;20457;-80
2023/12/09 06:16:51;;;;;;;11.10;3.80;;;6.30;99.90;;;;;;5098917;28;20459;-80
2023/12/09 06:19:18;;;;;;;5.23;3.03;;;6.30;99.90;;;;;;5091427;28;20489;-77
2023/12/09 06:21:44;;;;;;;7.77;3.03;;;6.30;99.90;;;;;;5088894;28;20960;-79
2023/12/09 06:24:13;;;;;;;5.10;2.83;;;6.30;99.90;;;;;;5099170;28;20457;-79
2023/12/09 06:26:45;;;;;;;6.13;2.90;;;6.20;99.90;;;;;;5099762;28;20492;-79
2023/12/09 06:29:14;;;;;;;8.20;2.60;;;6.20;99.90;;;;;;5094343;28;20527;-81
2023/12/09 06:31:41;;;;;;;8.23;2.40;;;6.20;99.90;;;;;;5089236;28;20451;-79
2023/12/09 06:34:07;;;;;;;7.20;2.67;;;6.20;99.90;;;;;;5096874;28;21139;-79
2023/12/09 06:36:34;;;;;;;12.17;2.53;;;6.10;99.90;;;;;;5094992;28;20871;-80
2023/12/09 06:39:01;;;;;;;4.80;2.43;;;6.10;99.90;;;;;;5095654;28;20487;-80
2023/12/09 06:41:29;;;;;;;7.40;2.30;;;6.20;99.90;;;;;;5085711;28;20477;-80
2023/12/09 06:43:56;;;;;;;6.23;2.30;;;6.10;99.90;;;;;;5090999;28;20465;-80
2023/12/09 06:46:22;;;;;;;4.23;2.03;;;6.10;99.90;;;;;;5095484;28;20493;-82
2023/12/09 06:48:49;;;;;;;7.03;2.53;;;6.10;99.90;;;;;;5071587;28;20478;-80
2023/12/09 06:51:17;;;;;;;6.73;2.47;;;6.10;99.90;;;;;;5086233;28;21154;-83
2023/12/09 06:53:45;;;;;;;10.03;2.53;;;6.00;99.90;;;;;;5097965;28;21014;-81
2023/12/09 06:56:22;;;;;;;5.33;2.63;;;6.00;99.90;;;;;;5093726;28;20455;-78
2023/12/09 06:58:56;;;;;;;8.80;2.60;;;6.00;99.90;;;;;;5087444;28;20491;-77
2023/12/09 07:01:24;;;;;;;5.30;2.00;;;6.10;99.90;;;;;;5095094;28;20457;-81
2023/12/09 07:03:52;;;;;;;6.60;2.30;;;6.10;99.90;;;;;;5095302;28;20552;-81
2023/12/09 07:06:22;;;;;;;4.07;1.90;;;6.10;99.90;;;;;;5084400;28;20490;-80
2023/12/09 07:08:49;;;;;;;3.20;2.00;;;6.00;99.90;;;;;;5075986;28;20476;-77
2023/12/09 07:11:17;;;;;;;9.57;2.47;;;6.10;99.90;;;;;;5095805;28;20843;-81
2023/12/09 07:13:44;;;;;;;5.30;2.83;;;6.00;99.90;;;;;;5086881;28;21034;-82
2023/12/09 07:16:13;;;;;;;4.67;2.17;;;6.00;99.90;;;;;;5091492;28;20452;-81
2023/12/09 07:18:43;;;;;;;9.17;3.00;;;5.90;99.90;;;;;;5097078;28;20481;-82
2023/12/09 07:21:10;;;;;;;4.63;2.20;;;6.10;99.90;;;;;;5095307;28;20458;-81
2023/12/09 07:23:37;;;;;;;4.33;1.97;;;6.10;99.90;;;;;;5095740;28;20449;-82
2023/12/09 07:26:04;;;;;;;8.77;3.03;;;6.20;99.90;;;;;;5092325;28;21021;-80
2023/12/09 07:28:31;;;;;;;4.33;2.57;;;6.30;99.90;;;;;;5095083;28;20476;-82
2023/12/09 07:30:57;;;;;;;4.17;2.30;;;6.40;99.90;;;;;;5093873;28;20974;-80
2023/12/09 07:33:25;;;;;;;5.87;2.03;;;6.40;99.90;;;;;;5094915;28;20457;-81
2023/12/09 07:35:52;;;;;;;6.83;2.30;;;6.30;99.90;;;;;;5095628;28;20453;-82
2023/12/09 07:38:19;;;;;;;5.40;2.00;;;6.40;99.90;;;;;;5089062;28;20473;-81
2023/12/09 07:40:46;;;;;;;4.80;1.77;;;6.40;99.90;;;;;;5071810;28;20457;-80
2023/12/09 07:43:14;;;;;;;7.67;2.13;;;6.50;99.90;;;;;;5066810;28;20504;-82
2023/12/09 07:45:41;;;;;;;4.10;2.10;;;6.70;99.90;;;;;;5073135;28;21001;-81
2023/12/09 07:48:08;;;;;;;3.90;1.77;;;6.70;99.90;;;;;;5090815;28;20484;-82
2023/12/09 07:50:50;;;;;;;4.13;2.47;;;6.80;99.90;;;;;;5075584;28;20456;-80
2023/12/09 07:53:16;;;;;;;7.13;2.27;;;6.80;99.90;;;;;;5073578;28;20464;-80
2023/12/09 07:55:43;;;;;;;3.97;1.90;;;6.90;99.90;;;;;;5074291;28;20451;-82
2023/12/09 07:58:11;;;;;;;4.20;1.60;;;6.90;99.90;;;;;;5073660;28;20482;-83
2023/12/09 08:00:38;;;;;;;3.37;1.67;;;7.00;99.90;;;;;;5090789;28;20457;-82
2023/12/09 08:03:05;;;;;;;4.73;2.00;;;7.00;99.90;;;;;;5079351;28;20459;-81
2023/12/09 08:05:32;;;;;;;3.90;2.03;;;7.10;99.90;;;;;;5094565;28;20450;-82
2023/12/09 08:08:01;;;;;;;5.60;1.97;;;7.10;99.90;;;;;;5084474;28;20491;-80
2023/12/09 08:10:30;;;;;;;4.10;2.00;;;7.10;99.90;;;;;;5092103;28;20489;-82
2023/12/09 08:12:57;;;;;;;6.17;1.90;;;7.10;99.90;;;;;;5090687;28;20459;-81
2023/12/09 08:15:24;;;;;;;4.50;2.60;;;7.20;99.90;;;;;;5081714;28;20455;-82
2023/12/09 08:17:51;;;;;;;7.40;2.10;;;7.30;99.90;;;;;;5089869;28;20950;-82
2023/12/09 08:20:18;;;;;;;5.57;2.50;;;7.40;99.90;;;;;;5085615;28;20884;-79
2023/12/09 08:22:45;;;;;;;5.47;1.87;;;7.50;99.90;;;;;;5095327;28;21127;-82
2023/12/09 08:25:13;;;;;;;6.80;1.80;;;7.50;99.90;;;;;;5094974;28;20958;-80
2023/12/09 08:27:44;;;;;;;3.20;2.40;;;7.60;99.90;;;;;;5094824;28;20482;-83
2023/12/09 08:30:12;;;;;;;4.83;1.93;;;7.60;99.90;;;;;;5094493;28;20488;-81
2023/12/09 08:32:39;;;;;;;9.00;2.60;;;7.60;99.90;;;;;;5088076;28;20454;-82
2023/12/09 08:35:07;;;;;;;6.70;2.27;;;7.60;99.90;;;;;;5094791;28;20453;-81
2023/12/09 08:37:34;;;;;;;3.50;2.30;;;7.60;99.90;;;;;;5099412;28;20445;-80
2023/12/09 08:40:09;;;;;;;3.73;2.10;;;7.60;99.90;;;;;;5097012;28;20952;-83
2023/12/09 08:42:38;;;;;;;4.13;1.90;;;7.60;99.90;;;;;;5098617;28;20451;-81
2023/12/09 08:45:08;;;;;;;5.40;2.30;;;7.70;99.90;;;;;;5098393;28;20458;-81
2023/12/09 08:47:35;;;;;;;5.67;1.73;;;7.80;99.90;;;;;;5095058;28;20836;-82
2023/12/09 08:50:02;;;;;;;4.17;1.70;;;7.90;99.90;;;;;;5084059;28;20971;-82
2023/12/09 08:52:28;;;;;;;4.57;2.00;;;8.00;99.90;;;;;;5097317;28;20484;-80
2023/12/09 08:54:55;;;;;;;4.90;1.87;;;8.10;99.90;;;;;;5098021;28;20560;-81
2023/12/09 08:57:22;;;;;;;10.33;2.67;;;8.20;99.90;;;;;;5097426;28;20450;-82
2023/12/09 08:59:51;;;;;;;5.03;2.37;;;8.20;99.90;;;;;;5097228;28;20481;-82
2023/12/09 09:02:18;;;;;;;4.93;1.93;;;8.30;99.90;;;;;;5096385;28;20842;-79
2023/12/09 09:04:44;;;;;;;6.93;2.17;;;8.30;99.90;;;;;;5098332;28;20972;-83
2023/12/09 09:07:11;;;;;;;3.43;1.60;;;8.40;99.90;;;;;;5087449;28;20496;-81
2023/12/09 09:09:39;;;;;;;4.47;2.37;;;8.50;99.90;;;;;;5088135;28;21403;-81
2023/12/09 09:12:06;;;;;;;5.53;2.03;;;8.50;99.90;;;;;;5097374;28;20450;-81
2023/12/09 09:14:33;;;;;;;4.53;2.40;;;8.50;99.90;;;;;;5094490;28;20976;-81
2023/12/09 09:17:02;;;;;;;5.73;2.37;;;8.60;99.90;;;;;;5098076;28;20536;-80
2023/12/09 09:19:29;;;;;;;10.10;2.23;;;8.60;99.90;;;;;;5090992;28;20940;-80
2023/12/09 09:21:56;;;;;;;7.60;2.90;;;8.80;99.90;;;;;;5102099;28;20459;-82
2023/12/09 09:24:22;;;;;;;5.57;1.70;;;8.80;99.90;;;;;;5098943;28;20452;-82
2023/12/09 09:26:49;;;;;;;10.87;5.10;;;8.80;99.90;;;;;;5096982;28;20495;-81
2023/12/09 09:29:16;;;;;;;6.10;2.60;;;8.80;99.90;;;;;;5074630;28;20560;-82
2023/12/09 09:31:43;;;;;;;7.63;2.23;;;8.80;99.90;;;;;;5073575;28;20545;-81
2023/12/09 09:34:11;;;;;;;5.70;2.60;;;8.70;99.90;;;;;;5081103;28;20500;-80
2023/12/09 09:36:38;;;;;;;6.27;2.10;;;8.80;99.90;;;;;;5090337;28;20459;-81
2023/12/09 09:39:06;;;;;;;8.80;2.60;;;8.90;99.90;;;;;;5073883;28;20476;-82
2023/12/09 09:41:40;;;;;;;5.67;2.17;;;9.00;99.90;;;;;;5071720;28;20471;-82
2023/12/09 09:44:11;;;;;;;7.77;2.13;;;9.30;99.90;;;;;;5078293;28;20461;-82
2023/12/09 09:46:39;;;;;;;7.40;1.43;;;9.40;99.90;;;;;;5080033;28;20481;-81
2023/12/09 09:49:06;;;;;;;13.20;3.23;;;9.60;99.90;;;;;;5091194;28;20538;-81
2023/12/09 09:51:36;;;;;;;5.17;2.17;;;9.50;99.90;;;;;;5081527;28;20460;-83
2023/12/09 09:54:11;;;;;;;5.10;2.07;;;9.60;99.90;;;;;;5087194;28;20497;-81
2023/12/09 09:56:38;;;;;;;6.10;2.00;;;9.60;99.90;;;;;;5072202;28;20438;-82
2023/12/09 09:59:06;;;;;;;6.63;2.30;;;9.60;99.90;;;;;;5074026;28;20468;-81
2023/12/09 10:01:42;;;;;;;8.77;2.40;;;9.50;99.90;;;;;;5085410;28;20454;-79
2023/12/09 10:04:09;;;;;;;10.30;2.00;;;9.50;99.90;;;;;;5078612;28;20948;-79
2023/12/09 10:06:40;;;;;;;4.90;2.60;;;9.70;99.90;;;;;;5091897;28;20441;-79
2023/12/09 10:09:07;;;;;;;5.97;1.77;;;9.70;99.90;;;;;;5085110;28;20483;-79
2023/12/09 10:11:34;;;;;;;8.20;2.33;;;9.70;99.90;;;;;;5083577;28;20452;-80
2023/12/09 10:14:01;;;;;;;3.90;1.80;;;9.70;99.90;;;;;;5087515;28;21085;-80
2023/12/09 10:16:27;;;;;;;6.10;2.50;;;9.40;99.90;;;;;;5086016;28;20955;-80
2023/12/09 10:18:56;;;;;;;6.70;2.63;;;9.40;99.90;;;;;;5085939;28;20483;-80
2023/12/09 10:21:23;;;;;;;4.03;1.53;;;9.40;99.90;;;;;;5081973;28;20466;-81
2023/12/09 10:23:51;;;;;;;8.60;1.87;;;9.40;99.90;;;;;;5087270;28;20459;-80
2023/12/09 10:26:21;;;;;;;7.13;2.03;;;9.30;99.90;;;;;;5087506;28;20454;-80
2023/12/09 10:28:47;;;;;;;8.03;2.03;;;9.30;99.90;;;;;;5082870;28;20499;-80
2023/12/09 10:31:15;;;;;;;7.50;2.27;;;9.20;99.90;;;;;;5090599;28;20459;-81
2023/12/09 10:33:44;;;;;;;7.80;2.23;;;9.10;99.90;;;;;;5078256;28;20535;-78
2023/12/09 10:36:12;;;;;;;4.47;2.17;;;9.10;99.90;;;;;;5086716;28;20927;-80
2023/12/09 10:38:42;;;;;;;5.60;1.47;;;9.20;99.90;;;;;;5088015;28;20821;-80
2023/12/09 10:41:13;;;;;;;5.70;1.93;;;9.20;99.90;;;;;;5067843;28;20473;-81
2023/12/09 10:43:41;;;;;;;8.47;2.60;;;9.20;99.90;;;;;;5088157;28;20510;-79
2023/12/09 10:46:08;;;;;;;10.30;2.37;;;9.20;99.90;;;;;;5080371;28;20463;-79
2023/12/09 10:48:35;;;;;;;5.33;2.10;;;9.20;99.90;;;;;;5086669;28;20863;-81
2023/12/09 10:51:03;;;;;;;3.40;2.10;;;9.10;99.90;;;;;;5089196;28;20460;-80
2023/12/09 10:53:29;;;;;;;5.67;2.57;;;9.20;99.90;;;;;;5089313;28;20543;-82
2023/12/09 10:55:57;;;;;;;8.40;2.47;;;9.30;99.90;;;;;;5085768;28;20452;-79
2023/12/09 10:58:25;;;;;;;6.10;2.13;;;9.40;99.90;;;;;;5085410;28;20474;-81
2023/12/09 11:00:55;;;;;;;10.83;3.33;;;9.40;99.90;;;;;;5089358;28;20561;-80
2023/12/09 11:03:24;;;;;;;3.70;2.30;;;9.60;99.90;;;;;;5087048;28;20458;-80
2023/12/09 11:05:54;;;;;;;6.57;2.40;;;9.50;99.90;;;;;;5082332;28;20468;-80
2023/12/09 11:08:23;;;;;;;5.00;2.03;;;9.60;99.90;;;;;;5083870;28;20856;-80
2023/12/09 11:10:50;;;;;;;4.73;1.80;;;9.70;99.90;;;;;;5088840;28;20540;-81
2023/12/09 11:13:19;;;;;;;8.23;2.00;;;9.80;99.90;;;;;;5090129;28;20500;-79
2023/12/09 11:15:48;;;;;;;6.03;2.40;;;9.80;99.90;;;;;;5084292;28;20480;-80
2023/12/09 11:18:17;;;;;;;6.20;2.10;;;9.90;99.90;;;;;;5083161;28;20486;-81
2023/12/09 11:20:45;;;;;;;6.70;1.80;;;9.90;99.90;;;;;;5085566;28;20460;-80
2023/12/09 11:23:14;;;;;;;8.30;4.53;;;9.80;99.90;;;;;;5087034;28;20514;-80
2023/12/09 11:25:43;;;;;;;5.43;2.23;;;9.80;99.90;;;;;;5082122;28;20523;-79
2023/12/09 11:28:11;;;;;;;5.90;2.23;;;9.80;99.90;;;;;;5084857;28;20493;-80
2023/12/09 11:30:42;;;;;;;4.33;1.97;;;9.90;99.90;;;;;;5070434;28;20449;-80
2023/12/09 11:33:10;;;;;;;9.47;2.80;;;10.00;99.90;;;;;;5082367;28;20457;-80
2023/12/09 11:35:38;;;;;;;7.73;2.83;;;10.00;99.90;;;;;;5089463;28;20832;-82
2023/12/09 11:38:08;;;;;;;11.33;2.70;;;10.10;99.90;;;;;;5083806;28;20477;-80
2023/12/09 11:40:37;;;;;;;7.20;2.43;;;10.00;99.90;;;;;;5063729;28;20523;-82
2023/12/09 11:43:06;;;;;;;5.50;2.10;;;10.10;99.90;;;;;;5072745;28;20470;-79
2023/12/09 11:45:33;;;;;;;7.97;2.10;;;10.00;99.90;;;;;;5075250;28;20829;-80
2023/12/09 11:48:00;;;;;;;8.10;1.90;;;10.00;99.90;;;;;;5088805;28;20494;-81
2023/12/09 11:50:29;;;;;;;9.50;2.27;;;10.00;99.90;;;;;;5094210;28;20461;-79
2023/12/09 11:52:56;;;;;;;8.57;3.60;;;9.80;99.90;;;;;;5083411;28;20805;-80
2023/12/09 11:55:23;;;;;;;11.07;2.53;;;9.80;99.90;;;;;;5092994;28;20455;-81
2023/12/09 11:57:50;;;;;;;5.23;1.87;;;9.70;99.90;;;;;;5081652;28;20453;-81
2023/12/09 12:00:18;;;;;;;4.23;1.90;;;9.70;99.90;;;;;;5087543;28;20464;-80
2023/12/09 12:02:48;;;;;;;5.93;2.07;;;9.70;99.90;;;;;;5089154;28;20845;-80
2023/12/09 12:05:18;;;;;;;9.23;2.70;;;9.70;99.90;;;;;;5093089;28;20530;-80
2023/12/09 12:07:46;;;;;;;8.60;2.57;;;9.70;99.90;;;;;;5089533;28;20492;-80
2023/12/09 12:10:14;;;;;;;4.73;2.20;;;9.70;99.90;;;;;;5071326;28;20477;-79
2023/12/09 12:12:41;;;;;;;6.37;2.37;;;9.60;99.90;;;;;;5077514;28;20485;-79
2023/12/09 12:15:08;;;;;;;8.50;4.53;;;9.70;99.90;;;;;;5077410;28;20500;-78
2023/12/09 12:17:40;;;;;;;10.07;2.37;;;9.70;99.90;;;;;;5069798;28;20481;-80
2023/12/09 12:20:09;;;;;;;6.37;2.00;;;9.70;99.90;;;;;;5068449;28;20493;-81
2023/12/09 12:22:36;;;;;;;11.10;2.20;;;9.60;99.90;;;;;;5073034;28;20456;-81
2023/12/09 12:25:09;;;;;;;4.57;2.00;;;9.60;99.90;;;;;;5072101;28;20458;-79
2023/12/09 12:27:41;;;;;;;7.33;2.37;;;9.50;99.90;;;;;;5072657;28;20481;-80
2023/12/09 12:30:11;;;;;;;7.63;2.30;;;9.60;99.90;;;;;;5076898;28;20460;-80
2023/12/09 12:32:38;;;;;;;9.70;2.33;;;9.60;99.90;;;;;;5096341;28;20896;-81
2023/12/09 12:35:06;;;;;;;6.33;2.10;;;9.60;99.90;;;;;;5071910;28;20590;-80
2023/12/09 12:40:06;;;;;;;9.97;2.20;;;9.60;99.90;;;;;;5081111;22;20494;-80
2023/12/09 12:42:33;;;;;;;13.53;3.20;;;9.50;99.90;;;;;;5060010;28;20486;-81
2023/12/09 12:45:02;;;;;;;7.47;2.30;;;9.50;99.90;;;;;;5058566;28;20493;-81
2023/12/09 12:47:29;;;;;;;7.03;1.83;;;9.50;99.90;;;;;;5058743;28;20487;-81
2023/12/09 12:49:56;;;;;;;7.53;2.60;;;9.50;99.90;;;;;;5077498;28;20480;-80
2023/12/09 12:52:23;;;;;;;6.67;2.50;;;9.50;99.90;;;;;;5080793;28;20471;-82
2023/12/09 12:54:52;;;;;;;4.70;2.47;;;9.50;99.90;;;;;;5083567;28;20459;-80
2023/12/09 12:57:20;;;;;;;6.37;1.93;;;9.50;99.90;;;;;;5074935;28;20455;-80
2023/12/09 12:59:47;;;;;;;10.13;2.30;;;9.60;99.90;;;;;;5076272;28;20919;-81
2023/12/09 13:02:14;;;;;;;8.40;2.40;;;9.70;99.90;;;;;;5080405;28;20487;-80